Latest Weather Observations for Kadina

IDS60801

Issued at 12:31 pm CST Saturday 22 July 2017 (issued every 30 minutes, with the page automatically refreshed every 10 minutes)

About weather observations | Map of weather stations | Latest weather observations for SA | Other Formats
Station Details ID: 022050 Name: KADINA AWS Lat: -33.97 Lon: 137.66 Height: 41.14 m
Data from the previous 72 hours. | See also: Recent months at Kadina
Date/Time
CST
Temp
°C
App
Temp
°C
Dew
Point
°C
Rel
Hum
%
Delta-T
°C
Wind Press
QNH
hPa
Press
MSL
hPa
Rain since
9am
mm
Dir  Spd
km/h
Gust
km/h
Spd
kts
Gust
kts
22/12:30pm 16.4 6.9 3.8 43 5.8 N 43 52 23 28 1015.6 1015.7 0.0
22/12:00pm 15.5 5.9 3.6 45 5.5 N 43 59 23 32 1016.5 1016.6 0.0
22/11:55am 15.8 6.7 3.9 45 5.5 N 41 59 22 32 1016.7 1016.8 0.0
22/11:30am 15.0 4.9 3.5 46 5.2 N 46 61 25 33 1017.1 1017.2 0.0
22/11:00am 14.7 4.5 3.2 46 5.2 N 46 57 25 31 1017.6 1017.7 0.0
22/10:30am 14.4 4.4 4.4 51 4.6 N 46 57 25 31 1017.9 1018.0 0.0
22/10:00am 14.1 4.1 4.4 52 4.5 N 46 56 25 30 1018.2 1018.3 0.0
22/09:30am 13.5 4.9 4.6 55 4.1 N 39 54 21 29 1018.5 1018.6 0.0
22/09:00am 12.5 4.7 4.7 59 3.6 N 35 50 19 27 1018.5 1018.6 0.0
22/08:30am 12.4 5.1 4.6 59 3.6 N 32 41 17 22 1018.5 1018.6 0.0
22/08:00am 12.0 5.1 4.7 61 3.3 N 30 43 16 23 1018.6 1018.7 0.0
22/07:30am 12.1 5.2 4.8 61 3.3 N 30 37 16 20 1018.5 1018.6 0.0
22/07:00am 12.0 5.2 5.2 63 3.1 N 30 39 16 21 1018.1 1018.2 0.0
22/06:30am 11.9 6.3 5.5 65 3.0 N 24 30 13 16 1018.2 1018.3 0.0
22/06:00am 9.8 5.2 5.6 75 1.9 NNE 19 24 10 13 1017.8 1017.9 0.0
22/05:30am 10.6 5.9 6.0 73 2.1 N 20 24 11 13 1017.9 1018.0 0.0
22/05:00am 11.2 6.0 5.7 69 2.5 N 22 28 12 15 1017.8 1017.9 0.0
22/04:30am 11.2 5.3 5.7 69 2.5 N 26 32 14 17 1017.7 1017.8 0.0
22/04:00am 11.6 8.0 5.0 64 3.0 N 13 20 7 11 1018.3 1018.4 0.0
22/03:30am 12.7 7.7 4.4 57 3.8 NNW 20 32 11 17 1018.4 1018.5 0.0
22/03:17am 13.3 6.8 4.5 55 4.0 N 28 39 15 21 1017.7 1017.8 0.0
22/03:00am 11.6 8.9 5.5 66 2.8 SW 9 15 5 8 1018.5 1018.6 0.0
22/02:30am 12.5 6.1 5.4 62 3.3 N 28 35 15 19 1017.6 1017.7 0.0
22/02:00am 12.4 6.0 5.1 61 3.4 N 28 35 15 19 1017.5 1017.6 0.0
22/01:30am 12.6 6.2 5.1 60 3.5 N 28 35 15 19 1017.7 1017.8 0.0
22/01:00am 12.5 6.4 5.0 60 3.5 N 26 35 14 19 1017.7 1017.8 0.0
22/12:30am 11.0 5.8 5.3 68 2.6 N 22 28 12 15 1017.6 1017.7 0.0
22/12:00am 10.7 5.8 5.0 68 2.6 N 20 26 11 14 1017.7 1017.8 0.0
 
Date/Time
CST
Temp
°C
App
Temp
°C
Dew
Point
°C
Rel
Hum
%
Delta-T
°C
Wind Press
QNH
hPa
Press
MSL
hPa
Rain since
9am
mm
Dir  Spd
km/h
Gust
km/h
Spd
kts
Gust
kts
21/11:30pm 10.9 5.1 4.4 64 2.9 N 24 30 13 16 1017.7 1017.8 0.0
21/11:00pm 11.4 5.0 3.4 58 3.5 N 26 32 14 17 1017.5 1017.6 0.0
21/10:30pm 11.6 5.5 2.9 55 3.8 N 24 28 13 15 1017.8 1017.9 0.0
21/10:00pm 11.7 5.6 3.0 55 3.8 NNE 24 30 13 16 1017.6 1017.7 0.0
21/09:30pm 11.5 5.8 3.0 56 3.7 NNE 22 28 12 15 1017.7 1017.8 0.0
21/09:00pm 11.9 6.3 3.2 55 3.8 NNE 22 30 12 16 1017.9 1018.0 0.0
21/08:30pm 12.7 6.3 3.4 53 4.1 NNE 26 32 14 17 1018.2 1018.3 0.0
21/08:00pm 12.9 6.3 4.1 55 4.0 NNE 28 35 15 19 1018.0 1018.1 0.0
21/07:30pm 12.8 6.7 4.8 58 3.7 NNE 26 33 14 18 1018.1 1018.2 0.0
21/07:00pm 13.3 6.9 5.2 58 3.8 NNE 28 35 15 19 1017.9 1018.0 0.0
21/06:30pm 13.6 7.1 4.7 55 4.1 N 28 37 15 20 1018.0 1018.1 0.0
21/06:00pm 13.8 7.3 4.9 55 4.1 NNE 28 37 15 20 1017.8 1017.9 0.0
21/05:30pm 14.2 7.8 5.0 54 4.3 NNE 28 37 15 20 1017.7 1017.8 0.0
21/05:00pm 15.4 8.6 5.0 50 4.9 NNE 30 39 16 21 1017.7 1017.8 0.0
21/04:30pm 16.9 9.2 3.2 40 6.3 N 33 43 18 23 1017.9 1018.0 0.0
21/04:00pm 17.2 8.4 3.5 40 6.4 N 39 50 21 27 1018.1 1018.2 0.0
21/03:30pm 17.4 8.2 3.3 39 6.5 N 41 52 22 28 1017.8 1017.9 0.0
21/03:00pm 17.4 9.4 4.0 41 6.3 N 35 46 19 25 1017.9 1018.0 0.0
21/02:30pm 16.9 8.9 3.9 42 6.1 N 35 44 19 24 1018.5 1018.6 0.0
21/02:00pm 16.9 9.1 4.9 45 5.7 N 35 46 19 25 1018.4 1018.5 0.0
21/01:30pm 15.9 8.1 4.9 48 5.2 N 35 44 19 24 1018.6 1018.7 0.0
21/01:00pm 15.4 6.9 5.3 51 4.8 N 39 50 21 27 1019.1 1019.2 0.0
21/12:30pm 15.3 7.3 5.5 52 4.7 N 37 48 20 26 1019.5 1019.6 0.0
21/12:00pm 14.3 6.3 5.7 56 4.1 N 37 46 20 25 1020.1 1020.2 0.0
21/11:30am 14.2 6.7 6.3 59 3.8 N 35 44 19 24 1020.7 1020.8 0.0
21/11:00am 14.1 6.6 6.2 59 3.8 N 35 46 19 25 1021.0 1021.1 0.0
21/10:30am 13.5 6.4 6.6 63 3.3 N 33 41 18 22 1021.1 1021.2 0.0
21/10:00am 12.6 7.0 7.1 69 2.7 NNE 26 33 14 18 1021.5 1021.6 0.0
21/09:30am 10.7 5.3 6.5 75 2.0 NNE 24 32 13 17 1021.4 1021.5 0.0
21/09:00am 8.8 5.4 5.7 81 1.4 NE 13 19 7 10 1021.3 1021.4 0.0
21/08:30am 6.4 1.4 3.6 82 1.2 NE 19 20 10 11 1020.9 1021.0 0.0
21/08:00am 4.6 -0.2 2.6 87 0.8 NE 17 19 9 10 1020.8 1020.9 0.0
21/07:30am 2.8 -1.5 1.3 90 0.6 NE 13 15 7 8 1020.6 1020.7 0.0
21/07:00am 3.1 -1.5 1.5 89 0.6 NNE 15 17 8 9 1020.6 1020.7 0.0
21/06:30am 2.5 -2.5 1.2 91 0.5 NE 17 19 9 10 1020.4 1020.5 0.0
21/06:00am 1.5 -2.5 0.3 92 0.4 NE 11 15 6 8 1020.2 1020.3 0.0
21/05:30am 1.4 -3.0 0.1 91 0.5 ENE 13 15 7 8 1020.0 1020.1 0.0
21/05:00am 1.8 -2.6 0.5 91 0.5 NE 13 15 7 8 1019.7 1019.8 0.0
21/04:30am 1.8 -2.3 -0.3 86 0.8 ENE 11 15 6 8 1019.5 1019.6 0.0
21/04:00am 3.7 -1.3 1.6 86 0.8 NE 17 20 9 11 1019.4 1019.5 0.0
21/03:30am 3.9 -1.0 1.9 87 0.8 NE 17 19 9 10 1019.3 1019.4 0.0
21/03:00am 3.8 -1.1 1.8 87 0.8 NE 17 17 9 9 1019.2 1019.3 0.0
21/02:30am 3.9 -1.0 2.1 88 0.7 NE 17 19 9 10 1019.6 1019.7 0.0
21/02:00am 3.8 -1.1 2.2 89 0.6 NE 17 17 9 9 1020.0 1020.1 0.0
21/01:30am 3.9 -0.9 2.6 91 0.5 NE 17 20 9 11 1020.0 1020.1 0.0
21/01:00am 1.4 -2.9 0.7 95 0.3 ENE 13 15 7 8 1020.2 1020.3 0.0
21/12:30am 1.2 -3.2 0.5 95 0.3 E 13 15 7 8 1020.3 1020.4 0.0
21/12:00am 0.8 -3.7 -0.1 94 0.3 E 13 15 7 8 1020.5 1020.6 0.0
 
Date/Time
CST
Temp
°C
App
Temp
°C
Dew
Point
°C
Rel
Hum
%
Delta-T
°C
Wind Press
QNH
hPa
Press
MSL
hPa
Rain since
9am
mm
Dir  Spd
km/h
Gust
km/h
Spd
kts
Gust
kts
20/11:30pm 1.4 -2.9 0.7 95 0.3 E 13 13 7 7 1020.5 1020.6 0.0
20/11:00pm 1.5 -2.9 0.6 94 0.3 E 13 15 7 8 1020.8 1020.9 0.0
20/10:30pm 1.9 -2.4 0.9 93 0.4 ESE 13 15 7 8 1020.9 1021.0 0.0
20/10:00pm 2.7 -1.5 1.7 93 0.4 ESE 13 15 7 8 1021.2 1021.3 0.0
20/09:30pm 3.0 -1.1 2.0 93 0.4 ESE 13 15 7 8 1021.2 1021.3 0.0
20/09:00pm 2.6 -1.7 1.3 91 0.5 ESE 13 13 7 7 1021.3 1021.4 0.0
20/08:30pm 3.0 -1.2 1.5 90 0.6 E 13 15 7 8 1021.2 1021.3 0.0
20/08:00pm 4.0 0.2 2.0 87 0.8 E 11 13 6 7 1021.1 1021.2 0.0
20/07:30pm 5.1 1.1 3.0 86 0.9 E 13 13 7 7 1020.9 1021.0 0.0
20/07:00pm 6.0 2.1 3.3 83 1.1 E 13 13 7 7 1020.9 1021.0 0.0
20/06:30pm 6.6 2.6 3.0 78 1.5 ENE 13 15 7 8 1020.8 1020.9 0.0
20/06:00pm 8.8 5.4 4.0 72 2.1 ENE 11 11 6 6 1021.0 1021.1 0.0
20/05:30pm 10.3 7.0 4.5 67 2.6 NE 11 13 6 7 1020.9 1021.0 0.0
20/05:00pm 11.9 8.2 4.6 61 3.3 NE 13 17 7 9 1020.8 1020.9 0.0
20/04:30pm 12.6 8.1 4.3 57 3.8 NNE 17 22 9 12 1020.8 1020.9 0.0
20/04:00pm 13.0 7.5 3.9 54 4.1 N 22 30 12 16 1020.7 1020.8 0.0
20/03:30pm 13.1 8.2 4.0 54 4.1 N 19 26 10 14 1020.9 1021.0 0.0
20/03:00pm 13.6 8.8 4.5 54 4.2 N 19 24 10 13 1021.0 1021.1 0.0
20/02:30pm 13.8 9.8 4.7 54 4.2 NNE 15 22 8 12 1021.0 1021.1 0.0
20/02:00pm 13.3 8.6 5.0 57 3.9 NE 19 26 10 14 1021.2 1021.3 0.0
20/01:30pm 13.4 9.1 5.3 58 3.8 NE 17 24 9 13 1021.8 1021.9 0.0
20/01:00pm 13.1 8.4 5.3 59 3.6 NE 19 26 10 14 1022.4 1022.5 0.0
20/12:30pm 12.8 8.1 5.0 59 3.6 NE 19 24 10 13 1023.0 1023.1 0.0
20/12:00pm 12.7 8.0 5.1 60 3.5 NNE 19 26 10 14 1023.4 1023.5 0.0
20/11:30am 12.6 7.8 4.8 59 3.6 NE 19 26 10 14 1024.0 1024.1 0.0
20/11:00am 12.4 8.6 5.6 63 3.2 NE 15 19 8 10 1024.8 1024.9 0.0
20/10:30am 11.3 7.4 5.2 66 2.8 NE 15 20 8 11 1024.9 1025.0 0.0
20/10:00am 10.4 6.4 5.0 69 2.4 NE 15 19 8 10 1025.0 1025.1 0.0
20/09:30am 7.8 5.2 5.9 88 0.9 ENE 9 13 5 7 1025.1 1025.2 0.0
20/09:00am 4.7 1.6 3.8 94 0.4 E 9 11 5 6 1025.2 1025.3 0.0
20/08:30am 3.0 -0.7 2.4 96 0.2 E 11 11 6 6 1025.0 1025.1 0.0
20/08:00am 0.8 -2.9 0.2 96 0.2 ESE 9 11 5 6 1024.8 1024.9 0.0
20/07:30am 0.2 -4.3 -0.4 96 0.2 ESE 13 15 7 8 1024.8 1024.9 0.0
20/07:00am -0.1 -4.3 -0.8 95 0.2 ESE 11 13 6 7 1024.7 1024.8 0.0
20/06:30am 0.3 -4.2 -0.3 96 0.2 ESE 13 15 7 8 1024.6 1024.7 0.0
20/06:00am 0.0 -4.5 -0.6 96 0.2 ESE 13 13 7 7 1024.2 1024.3 0.0
20/05:30am 0.3 -3.8 -0.3 96 0.2 ESE 11 13 6 7 1024.1 1024.2 0.0
20/05:00am 0.1 -4.1 -0.6 95 0.3 E 11 13 6 7 1023.9 1024.0 0.0
20/04:30am -0.1 -3.9 -0.8 95 0.2 E 9 11 5 6 1024.0 1024.1 0.0
20/04:00am 0.1 -3.7 -0.6 95 0.3 E 9 9 5 5 1024.0 1024.1 0.0
20/03:30am 0.3 -3.8 -0.5 94 0.3 ESE 11 11 6 6 1024.3 1024.4 0.0
20/03:00am 0.8 -3.7 -0.2 93 0.4 ESE 13 13 7 7 1024.3 1024.4 0.0
20/02:30am 1.6 -2.7 0.7 94 0.3 SE 13 15 7 8 1024.3 1024.4 0.0
20/02:00am 1.5 -2.8 0.8 95 0.3 ESE 13 15 7 8 1024.5 1024.6 0.0
20/01:30am 1.9 -2.0 1.0 94 0.3 ESE 11 13 6 7 1024.7 1024.8 0.0
20/01:00am 1.9 -1.7 0.9 93 0.4 ESE 9 11 5 6 1024.7 1024.8 0.0
20/12:30am 2.4 -1.5 1.2 92 0.5 ESE 11 13 6 7 1024.6 1024.7 0.0
20/12:00am 3.6 0.6 2.3 91 0.5 ESE 7 9 4 5 1024.7 1024.8 0.0
 
Date/Time
CST
Temp
°C
App
Temp
°C
Dew
Point
°C
Rel
Hum
%
Delta-T
°C
Wind Press
QNH
hPa
Press
MSL
hPa
Rain since
9am
mm
Dir  Spd
km/h
Gust
km/h
Spd
kts
Gust
kts
19/11:30pm 4.3 1.6 2.5 88 0.7 SSE 6 7 3 4 1025.2 1025.3 0.0
19/11:00pm 4.5 1.6 2.4 86 0.8 SSE 7 9 4 5 1025.4 1025.5 0.0
19/10:30pm 5.7 1.7 2.9 82 1.1 S 13 15 7 8 1025.6 1025.7 0.0
19/10:00pm 6.1 1.9 3.8 85 1.0 S 15 17 8 9 1025.8 1025.9 0.0
19/09:30pm 6.0 3.3 3.7 85 1.0 SSE 7 11 4 6 1025.9 1026.0 0.0
19/09:00pm 6.1 3.5 3.3 82 1.2 SSE 6 9 3 5 1025.9 1026.0 0.0
19/08:30pm 7.7 4.3 3.9 77 1.6 SSE 11 13 6 7 1026.0 1026.1 0.0
19/08:00pm 6.1 2.6 3.4 83 1.1 SE 11 13 6 7 1026.0 1026.1 0.0
19/07:30pm 7.0 3.2 3.8 80 1.4 SE 13 15 7 8 1025.8 1025.9 0.0
19/07:00pm 9.6 5.6 4.8 72 2.2 SE 15 17 8 9 1025.6 1025.7 0.0
19/06:30pm 11.0 8.5 6.7 75 2.0 SE 9 13 5 7 1025.3 1025.4 0.0
19/06:00pm 11.3 8.3 6.2 71 2.4 SSE 11 13 6 7 1024.8 1024.9 0.0
19/05:30pm 11.8 9.0 6.9 72 2.3 SSE 11 13 6 7 1024.6 1024.7 0.0
19/05:00pm 12.2 9.0 6.9 70 2.5 SSE 13 17 7 9 1024.6 1024.7 0.0
19/04:30pm 12.8 8.9 5.2 60 3.5 S 15 20 8 11 1024.7 1024.8 0.0
19/04:00pm 13.2 9.1 4.4 55 4.0 SSE 15 26 8 14 1024.8 1024.9 0.0
19/03:30pm 13.2 8.4 4.4 55 4.0 SSE 19 26 10 14 1024.9 1025.0 0.0
19/03:00pm 13.1 7.5 3.7 53 4.2 S 22 32 12 17 1024.7 1024.8 0.0
19/02:30pm 13.6 8.8 4.7 55 4.1 SSW 19 28 10 15 1024.4 1024.5 0.0
19/02:00pm 13.2 7.9 4.9 57 3.8 S 22 32 12 17 1024.5 1024.6 0.0
19/01:30pm 13.1 8.1 4.8 57 3.8 S 20 26 11 14 1024.7 1024.8 0.0
19/01:00pm 13.4 7.7 5.1 57 3.9 SSW 24 30 13 16 1025.0 1025.1 0.0

Other Formats:

Comma delimited format used in spreadsheet applications
http://www.bom.gov.au/fwo/IDS60801/IDS60801.94685.axf

JavaScript Object Notation format (JSON) in row-major order
http://www.bom.gov.au/fwo/IDS60801/IDS60801.94685.json